sensor_id;sensor_type;location;lat;lon;timestamp;pressure;altitude;pressure_sealevel;temperature;humidity
76156;BME280;64906;51.290;7.348;2023-03-01T00:01:17;99513.97;;;19.29;69.85
76156;BME280;64906;51.290;7.348;2023-03-01T00:03:43;99524.91;;;19.29;69.91
76156;BME280;64906;51.290;7.348;2023-03-01T00:06:11;99519.44;;;19.29;69.83
76156;BME280;64906;51.290;7.348;2023-03-01T00:08:37;99519.44;;;19.29;69.79
76156;BME280;64906;51.290;7.348;2023-03-01T00:13:31;99527.66;;;19.29;70.11
76156;BME280;64906;51.290;7.348;2023-03-01T00:15:57;99523.00;;;19.29;69.67
76156;BME280;64906;51.290;7.348;2023-03-01T00:18:23;99514.81;;;19.29;69.99
76156;BME280;64906;51.290;7.348;2023-03-01T00:20:54;99514.22;;;19.27;69.66
76156;BME280;64906;51.290;7.348;2023-03-01T00:23:20;99520.53;;;19.28;69.93
76156;BME280;64906;51.290;7.348;2023-03-01T00:25:48;99512.31;;;19.28;69.68
76156;BME280;64906;51.290;7.348;2023-03-01T00:28:14;99514.22;;;19.27;69.66
76156;BME280;64906;51.290;7.348;2023-03-01T00:30:40;99504.09;;;19.28;70.17
76156;BME280;64906;51.290;7.348;2023-03-01T00:33:06;99515.03;;;19.28;69.67
76156;BME280;64906;51.290;7.348;2023-03-01T00:35:32;99501.34;;;19.28;69.62
76156;BME280;64906;51.290;7.348;2023-03-01T00:37:59;99507.91;;;19.27;69.80
76156;BME280;64906;51.290;7.348;2023-03-01T00:40:28;99520.53;;;19.28;69.66
76156;BME280;64906;51.290;7.348;2023-03-01T00:42:54;99513.38;;;19.27;69.60
76156;BME280;64906;51.290;7.348;2023-03-01T00:45:21;99506.81;;;19.28;69.91
76156;BME280;64906;51.290;7.348;2023-03-01T00:47:48;99504.09;;;19.28;69.59
76156;BME280;64906;51.290;7.348;2023-03-01T00:50:14;99489.84;;;19.26;69.72
76156;BME280;64906;51.290;7.348;2023-03-01T00:52:40;99501.34;;;19.28;69.92
76156;BME280;64906;51.290;7.348;2023-03-01T00:55:07;99494.22;;;19.27;69.51
76156;BME280;64906;51.290;7.348;2023-03-01T00:57:33;99494.22;;;19.27;69.61
76156;BME280;64906;51.290;7.348;2023-03-01T00:59:59;99492.31;;;19.27;69.56
76156;BME280;64906;51.290;7.348;2023-03-01T01:02:25;99486.84;;;19.27;69.46
76156;BME280;64906;51.290;7.348;2023-03-01T01:04:52;99475.06;;;19.27;69.42
76156;BME280;64906;51.290;7.348;2023-03-01T01:07:18;99478.63;;;19.27;69.48
76156;BME280;64906;51.290;7.348;2023-03-01T01:09:46;99480.53;;;19.27;69.81
76156;BME280;64906;51.290;7.348;2023-03-01T01:12:12;99477.00;;;19.26;69.80
76156;BME280;64906;51.290;7.348;2023-03-01T01:14:38;99476.16;;;19.26;69.56
76156;BME280;64906;51.290;7.348;2023-03-01T01:17:04;99474.25;;;19.26;69.47
76156;BME280;64906;51.290;7.348;2023-03-01T01:19:30;99468.78;;;19.26;69.48
76156;BME280;64906;51.290;7.348;2023-03-01T01:21:56;99463.31;;;19.26;69.66
76156;BME280;64906;51.290;7.348;2023-03-01T01:24:22;99461.38;;;19.27;69.38
76156;BME280;64906;51.290;7.348;2023-03-01T01:26:48;99471.50;;;19.26;69.78
76156;BME280;64906;51.290;7.348;2023-03-01T01:29:15;99464.38;;;19.25;69.48
76156;BME280;64906;51.290;7.348;2023-03-01T01:31:42;99461.63;;;19.25;69.73
76156;BME280;64906;51.290;7.348;2023-03-01T01:34:14;99458.91;;;19.25;69.37
76156;BME280;64906;51.290;7.348;2023-03-01T01:36:40;99462.47;;;19.26;69.47
76156;BME280;64906;51.290;7.348;2023-03-01T01:39:06;99460.84;;;19.25;69.74
76156;BME280;64906;51.290;7.348;2023-03-01T01:41:32;99455.34;;;19.25;69.49
76156;BME280;64906;51.290;7.348;2023-03-01T01:44:25;99457.00;;;19.26;69.67
76156;BME280;64906;51.290;7.348;2023-03-01T01:47:05;99449.06;;;19.24;69.72
76156;BME280;64906;51.290;7.348;2023-03-01T01:49:41;99448.22;;;19.24;69.75
76156;BME280;64906;51.290;7.348;2023-03-01T01:52:27;99447.16;;;19.25;69.64
76156;BME280;64906;51.290;7.348;2023-03-01T01:55:05;99447.94;;;19.25;69.52
76156;BME280;64906;51.290;7.348;2023-03-01T01:57:38;99449.88;;;19.25;69.58
76156;BME280;64906;51.290;7.348;2023-03-01T02:00:13;99445.22;;;19.25;69.68
76156;BME280;64906;51.290;7.348;2023-03-01T02:02:40;99450.69;;;19.25;69.43
76156;BME280;64906;51.290;7.348;2023-03-01T02:07:46;99436.44;;;19.23;69.74
76156;BME280;64906;51.290;7.348;2023-03-01T02:10:13;99442.75;;;19.24;69.42
76156;BME280;64906;51.290;7.348;2023-03-01T02:12:39;99435.38;;;19.24;69.35
76156;BME280;64906;51.290;7.348;2023-03-01T02:15:06;99434.53;;;19.24;69.42
76156;BME280;64906;51.290;7.348;2023-03-01T02:17:32;99428.22;;;19.23;69.34
76156;BME280;64906;51.290;7.348;2023-03-01T02:20:28;99420.00;;;19.23;69.48
76156;BME280;64906;51.290;7.348;2023-03-01T02:22:58;99420.00;;;19.23;69.74
76156;BME280;64906;51.290;7.348;2023-03-01T02:25:39;99406.31;;;19.23;69.76
76156;BME280;64906;51.290;7.348;2023-03-01T02:30:40;99410.16;;;19.22;69.55
76156;BME280;64906;51.290;7.348;2023-03-01T02:33:26;99411.28;;;19.21;69.62
76156;BME280;64906;51.290;7.348;2023-03-01T02:35:54;99403.88;;;19.22;69.63
76156;BME280;64906;51.290;7.348;2023-03-01T02:38:22;99394.56;;;19.23;69.37
76156;BME280;64906;51.290;7.348;2023-03-01T02:40:50;99400.31;;;19.21;69.41
76156;BME280;64906;51.290;7.348;2023-03-01T02:43:17;99392.13;;;19.21;69.31
76156;BME280;64906;51.290;7.348;2023-03-01T02:45:49;99400.31;;;19.21;69.53
76156;BME280;64906;51.290;7.348;2023-03-01T02:48:16;99389.38;;;19.21;69.57
76156;BME280;64906;51.290;7.348;2023-03-01T02:51:11;99381.16;;;19.21;69.32
76156;BME280;64906;51.290;7.348;2023-03-01T02:53:49;99383.91;;;19.21;69.59
76156;BME280;64906;51.290;7.348;2023-03-01T02:56:19;99372.94;;;19.21;69.65
76156;BME280;64906;51.290;7.348;2023-03-01T02:58:46;99360.34;;;19.20;69.66
76156;BME280;64906;51.290;7.348;2023-03-01T03:01:16;99368.56;;;19.20;69.68
76156;BME280;64906;51.290;7.348;2023-03-01T03:03:42;99361.19;;;19.21;69.58
76156;BME280;64906;51.290;7.348;2023-03-01T03:06:08;99359.53;;;19.20;69.44
76156;BME280;64906;51.290;7.348;2023-03-01T03:08:34;99364.19;;;19.19;69.65
76156;BME280;64906;51.290;7.348;2023-03-01T03:11:00;99355.97;;;19.19;69.39
76156;BME280;64906;51.290;7.348;2023-03-01T03:13:26;99350.50;;;19.19;69.49
76156;BME280;64906;51.290;7.348;2023-03-01T03:15:56;99362.56;;;19.18;69.45
76156;BME280;64906;51.290;7.348;2023-03-01T03:18:24;99353.50;;;19.18;69.52
76156;BME280;64906;51.290;7.348;2023-03-01T03:20:54;99348.31;;;19.16;69.63
76156;BME280;64906;51.290;7.348;2023-03-01T03:23:21;99349.09;;;19.17;69.44
76156;BME280;64906;51.290;7.348;2023-03-01T03:25:49;99351.03;;;19.16;69.60
76156;BME280;64906;51.290;7.348;2023-03-01T03:28:15;99344.47;;;19.17;69.66
76156;BME280;64906;51.290;7.348;2023-03-01T03:30:42;99346.13;;;19.18;69.63
76156;BME280;64906;51.290;7.348;2023-03-01T03:33:10;99336.25;;;19.17;69.72
76156;BME280;64906;51.290;7.348;2023-03-01T03:35:47;99339.81;;;19.18;69.42
76156;BME280;64906;51.290;7.348;2023-03-01T03:38:15;99340.91;;;19.17;69.40
76156;BME280;64906;51.290;7.348;2023-03-01T03:40:51;99354.59;;;19.17;69.46
76156;BME280;64906;51.290;7.348;2023-03-01T03:43:19;99348.31;;;19.16;69.58
76156;BME280;64906;51.290;7.348;2023-03-01T03:45:47;99338.16;;;19.17;69.58
76156;BME280;64906;51.290;7.348;2023-03-01T03:48:13;99334.63;;;19.16;69.57
76156;BME280;64906;51.290;7.348;2023-03-01T03:50:39;99326.41;;;19.16;69.50
76156;BME280;64906;51.290;7.348;2023-03-01T03:53:12;99335.69;;;19.15;69.38
76156;BME280;64906;51.290;7.348;2023-03-01T03:55:39;99334.63;;;19.16;69.52
76156;BME280;64906;51.290;7.348;2023-03-01T03:58:09;99330.22;;;19.15;69.63
76156;BME280;64906;51.290;7.348;2023-03-01T04:00:41;99329.41;;;19.15;69.55
76156;BME280;64906;51.290;7.348;2023-03-01T04:03:08;99327.75;;;19.14;69.35
76156;BME280;64906;51.290;7.348;2023-03-01T04:05:35;99327.75;;;19.14;69.64
76156;BME280;64906;51.290;7.348;2023-03-01T04:08:02;99321.47;;;19.13;69.54
76156;BME280;64906;51.290;7.348;2023-03-01T04:10:30;99323.38;;;19.13;69.36
76156;BME280;64906;51.290;7.348;2023-03-01T04:12:57;99321.47;;;19.13;69.49
76156;BME280;64906;51.290;7.348;2023-03-01T04:15:24;99327.75;;;19.14;69.72
76156;BME280;64906;51.290;7.348;2023-03-01T04:17:52;99321.47;;;19.13;69.29
76156;BME280;64906;51.290;7.348;2023-03-01T04:20:21;99313.28;;;19.13;69.52
76156;BME280;64906;51.290;7.348;2023-03-01T04:22:58;99306.97;;;19.13;69.68
76156;BME280;64906;51.290;7.348;2023-03-01T04:25:25;99308.06;;;19.12;69.70
76156;BME280;64906;51.290;7.348;2023-03-01T04:27:51;99297.94;;;19.12;69.73
76156;BME280;64906;51.290;7.348;2023-03-01T04:30:17;99297.94;;;19.12;69.33
76156;BME280;64906;51.290;7.348;2023-03-01T04:32:43;99295.47;;;19.11;69.59
76156;BME280;64906;51.290;7.348;2023-03-01T04:35:09;99295.47;;;19.11;69.28
76156;BME280;64906;51.290;7.348;2023-03-01T04:37:36;99285.34;;;19.11;69.42
76156;BME280;64906;51.290;7.348;2023-03-01T04:40:02;99279.88;;;19.11;69.75
76156;BME280;64906;51.290;7.348;2023-03-01T04:42:41;99282.63;;;19.11;69.30
76156;BME280;64906;51.290;7.348;2023-03-01T04:45:08;99277.13;;;19.11;69.62
76156;BME280;64906;51.290;7.348;2023-03-01T04:47:40;99285.34;;;19.11;69.52
76156;BME280;64906;51.290;7.348;2023-03-01T04:50:07;99284.53;;;19.11;69.44
76156;BME280;64906;51.290;7.348;2023-03-01T04:52:33;99282.34;;;19.13;69.25
76156;BME280;64906;51.290;7.348;2023-03-01T04:54:59;99277.97;;;19.12;69.26
76156;BME280;64906;51.290;7.348;2023-03-01T04:57:25;99281.50;;;19.12;69.25
76156;BME280;64906;51.290;7.348;2023-03-01T04:59:51;99277.13;;;19.11;69.55
76156;BME280;64906;51.290;7.348;2023-03-01T05:02:17;99274.41;;;19.11;69.27
76156;BME280;64906;51.290;7.348;2023-03-01T05:04:42;99280.94;;;19.10;69.37
76156;BME280;64906;51.290;7.348;2023-03-01T05:07:08;99283.69;;;19.10;69.60
76156;BME280;64906;51.290;7.348;2023-03-01T05:09:34;99284.78;;;19.09;69.65
76156;BME280;64906;51.290;7.348;2023-03-01T05:12:00;99283.97;;;19.09;69.23
76156;BME280;64906;51.290;7.348;2023-03-01T05:14:26;99275.50;;;19.15;69.33
76156;BME280;64906;51.290;7.348;2023-03-01T05:16:51;99282.88;;;19.10;69.29
76156;BME280;64906;51.290;7.348;2023-03-01T05:19:17;99281.22;;;19.09;69.36
76156;BME280;64906;51.290;7.348;2023-03-01T05:21:48;99286.97;;;19.07;69.36
76156;BME280;64906;51.290;7.348;2023-03-01T05:24:31;99283.44;;;19.07;69.60
76156;BME280;64906;51.290;7.348;2023-03-01T05:26:57;99284.22;;;19.07;69.39
76156;BME280;64906;51.290;7.348;2023-03-01T05:29:25;99282.59;;;19.06;69.33
76156;BME280;64906;51.290;7.348;2023-03-01T05:31:53;99288.63;;;19.08;69.24
76156;BME280;64906;51.290;7.348;2023-03-01T05:34:23;99288.06;;;19.06;69.53
76156;BME280;64906;51.290;7.348;2023-03-01T05:36:49;99295.19;;;19.07;69.49
76156;BME280;64906;51.290;7.348;2023-03-01T05:39:22;99288.91;;;19.07;69.30
76156;BME280;64906;51.290;7.348;2023-03-01T05:41:57;99288.91;;;19.07;69.60
76156;BME280;64906;51.290;7.348;2023-03-01T05:44:23;99294.38;;;19.07;69.22
76156;BME280;64906;51.290;7.348;2023-03-01T05:46:49;99288.91;;;19.07;69.13
76156;BME280;64906;51.290;7.348;2023-03-01T05:49:15;99288.91;;;19.07;69.40
76156;BME280;64906;51.290;7.348;2023-03-01T05:51:48;99283.44;;;19.07;69.45
76156;BME280;64906;51.290;7.348;2023-03-01T05:54:15;99281.78;;;19.06;69.64
76156;BME280;64906;51.290;7.348;2023-03-01T05:56:41;99280.16;;;19.05;69.35
76156;BME280;64906;51.290;7.348;2023-03-01T05:59:07;99280.94;;;19.05;69.49
76156;BME280;64906;51.290;7.348;2023-03-01T06:01:34;99278.19;;;19.05;69.62
76156;BME280;64906;51.290;7.348;2023-03-01T06:04:01;99289.16;;;19.05;69.56
76156;BME280;64906;51.290;7.348;2023-03-01T06:06:26;99285.63;;;19.05;69.43
76156;BME280;64906;51.290;7.348;2023-03-01T06:08:53;99296.56;;;19.05;69.47
76156;BME280;64906;51.290;7.348;2023-03-01T06:11:20;99298.47;;;19.04;69.36
76156;BME280;64906;51.290;7.348;2023-03-01T06:13:46;99293.00;;;19.04;69.46
76156;BME280;64906;51.290;7.348;2023-03-01T06:16:13;99302.03;;;19.05;69.72
76156;BME280;64906;51.290;7.348;2023-03-01T06:18:39;99310.25;;;19.05;69.25
76156;BME280;64906;51.290;7.348;2023-03-01T06:21:07;99313.78;;;19.05;69.30
76156;BME280;64906;51.290;7.348;2023-03-01T06:23:33;99315.72;;;19.05;69.52
76156;BME280;64906;51.290;7.348;2023-03-01T06:25:59;99312.16;;;19.04;69.51
76156;BME280;64906;51.290;7.348;2023-03-01T06:28:25;99312.16;;;19.04;69.36
76156;BME280;64906;51.290;7.348;2023-03-01T06:30:52;99317.63;;;19.04;69.39
76156;BME280;64906;51.290;7.348;2023-03-01T06:33:19;99312.16;;;19.04;69.24
76156;BME280;64906;51.290;7.348;2023-03-01T06:35:49;99317.63;;;19.04;69.30
76156;BME280;64906;51.290;7.348;2023-03-01T06:38:15;99317.63;;;19.04;69.45
76156;BME280;64906;51.290;7.348;2023-03-01T06:40:42;99320.63;;;19.03;69.40
76156;BME280;64906;51.290;7.348;2023-03-01T06:43:08;99311.31;;;19.04;69.41
76156;BME280;64906;51.290;7.348;2023-03-01T06:45:34;99316.78;;;19.04;69.50
76156;BME280;64906;51.290;7.348;2023-03-01T06:48:07;99327.72;;;19.04;69.40
76156;BME280;64906;51.290;7.348;2023-03-01T06:50:34;99323.09;;;19.04;69.31
76156;BME280;64906;51.290;7.348;2023-03-01T06:53:00;99326.09;;;19.03;69.48
76156;BME280;64906;51.290;7.348;2023-03-01T06:55:26;99337.88;;;19.03;69.53
76156;BME280;64906;51.290;7.348;2023-03-01T06:57:59;99331.56;;;19.03;69.24
76156;BME280;64906;51.290;7.348;2023-03-01T07:00:26;99346.09;;;19.03;69.35
76156;BME280;64906;51.290;7.348;2023-03-01T07:02:53;99352.63;;;19.02;69.25
76156;BME280;64906;51.290;7.348;2023-03-01T07:05:19;99358.09;;;19.02;69.58
76156;BME280;64906;51.290;7.348;2023-03-01T07:07:45;99364.41;;;19.03;69.24
76156;BME280;64906;51.290;7.348;2023-03-01T07:10:12;99361.94;;;19.01;69.43
76156;BME280;64906;51.290;7.348;2023-03-01T07:12:37;99365.50;;;19.02;69.44
76156;BME280;64906;51.290;7.348;2023-03-01T07:15:04;99361.94;;;19.01;69.40
76156;BME280;64906;51.290;7.348;2023-03-01T07:17:30;99370.16;;;19.01;69.51
76156;BME280;64906;51.290;7.348;2023-03-01T07:19:56;99371.78;;;19.02;69.34
76156;BME280;64906;51.290;7.348;2023-03-01T07:22:22;99374.53;;;19.02;69.29
76156;BME280;64906;51.290;7.348;2023-03-01T07:24:48;99374.53;;;19.02;69.32
76156;BME280;64906;51.290;7.348;2023-03-01T07:27:14;99376.47;;;19.02;69.60
76156;BME280;64906;51.290;7.348;2023-03-01T07:29:40;99383.00;;;19.01;69.12
76156;BME280;64906;51.290;7.348;2023-03-01T07:32:06;99387.41;;;19.02;69.54
76156;BME280;64906;51.290;7.348;2023-03-01T07:34:32;99393.66;;;19.02;69.40
76156;BME280;64906;51.290;7.348;2023-03-01T07:36:58;99391.78;;;19.03;69.25
76156;BME280;64906;51.290;7.348;2023-03-01T07:39:23;99390.94;;;19.02;69.27
76156;BME280;64906;51.290;7.348;2023-03-01T07:41:50;99405.44;;;19.03;69.05
76156;BME280;64906;51.290;7.348;2023-03-01T07:44:15;99407.34;;;19.02;69.36
76156;BME280;64906;51.290;7.348;2023-03-01T07:46:43;99409.28;;;19.02;69.52
76156;BME280;64906;51.290;7.348;2023-03-01T07:49:10;99410.09;;;19.02;69.36
76156;BME280;64906;51.290;7.348;2023-03-01T07:51:35;99411.75;;;19.03;69.37
76156;BME280;64906;51.290;7.348;2023-03-01T07:54:01;99409.28;;;19.02;69.29
76156;BME280;64906;51.290;7.348;2023-03-01T07:56:27;99413.66;;;19.03;69.17
76156;BME280;64906;51.290;7.348;2023-03-01T07:58:53;99418.03;;;19.04;69.08
76156;BME280;64906;51.290;7.348;2023-03-01T08:01:22;99425.16;;;19.05;69.19
76156;BME280;64906;51.290;7.348;2023-03-01T08:03:48;99424.91;;;19.06;69.33
76156;BME280;64906;51.290;7.348;2023-03-01T08:06:15;99421.06;;;19.07;69.05
76156;BME280;64906;51.290;7.348;2023-03-01T08:08:41;99420.78;;;19.09;69.16
76156;BME280;64906;51.290;7.348;2023-03-01T08:11:10;99422.72;;;19.08;68.94
76156;BME280;64906;51.290;7.348;2023-03-01T08:13:36;99423.53;;;19.09;68.89
76156;BME280;64906;51.290;7.348;2023-03-01T08:16:10;99421.63;;;19.09;68.88
76156;BME280;64906;51.290;7.348;2023-03-01T08:18:37;99421.63;;;19.09;69.02
76156;BME280;64906;51.290;7.348;2023-03-01T08:21:13;99412.56;;;19.09;68.86
76156;BME280;64906;51.290;7.348;2023-03-01T08:23:40;99415.03;;;19.10;69.12
76156;BME280;64906;51.290;7.348;2023-03-01T08:26:16;99421.34;;;19.11;69.13
76156;BME280;64906;51.290;7.348;2023-03-01T08:28:42;99416.72;;;19.11;68.98
76156;BME280;64906;51.290;7.348;2023-03-01T08:31:30;99426.00;;;19.10;68.81
76156;BME280;64906;51.290;7.348;2023-03-01T08:33:59;99427.66;;;19.11;69.09
76156;BME280;64906;51.290;7.348;2023-03-01T08:36:31;99429.28;;;19.12;68.86
76156;BME280;64906;51.290;7.348;2023-03-01T08:38:57;99433.97;;;19.12;68.81
76156;BME280;64906;51.290;7.348;2023-03-01T08:41:23;99437.78;;;19.11;68.75
76156;BME280;64906;51.290;7.348;2023-03-01T08:43:49;99441.34;;;19.11;69.01
76156;BME280;64906;51.290;7.348;2023-03-01T08:46:15;99437.78;;;19.11;68.73
76156;BME280;64906;51.290;7.348;2023-03-01T08:48:41;99435.88;;;19.11;69.17
76156;BME280;64906;51.290;7.348;2023-03-01T08:51:13;99439.16;;;19.13;68.82
76156;BME280;64906;51.290;7.348;2023-03-01T08:53:40;99432.59;;;19.14;68.82
76156;BME280;64906;51.290;7.348;2023-03-01T08:56:06;99424.66;;;19.13;68.90
76156;BME280;64906;51.290;7.348;2023-03-01T08:58:32;99430.97;;;19.13;69.08
76156;BME280;64906;51.290;7.348;2023-03-01T09:00:58;99429.31;;;19.17;68.75
76156;BME280;64906;51.290;7.348;2023-03-01T09:03:25;99425.50;;;19.18;68.64
76156;BME280;64906;51.290;7.348;2023-03-01T09:05:52;99433.16;;;19.21;68.83
76156;BME280;64906;51.290;7.348;2023-03-01T09:08:19;99436.97;;;19.20;68.80
76156;BME280;64906;51.290;7.348;2023-03-01T09:10:45;99441.66;;;19.20;68.48
76156;BME280;64906;51.290;7.348;2023-03-01T09:13:11;99441.38;;;19.21;68.41
76156;BME280;64906;51.290;7.348;2023-03-01T09:15:38;99438.66;;;19.21;68.80
76156;BME280;64906;51.290;7.348;2023-03-01T09:18:05;99441.66;;;19.25;68.64
76156;BME280;64906;51.290;7.348;2023-03-01T09:20:32;99437.00;;;19.25;68.69
76156;BME280;64906;51.290;7.348;2023-03-01T09:22:58;99441.41;;;19.26;68.48
76156;BME280;64906;51.290;7.348;2023-03-01T09:25:24;99453.97;;;19.27;68.90
76156;BME280;64906;51.290;7.348;2023-03-01T09:27:51;99459.72;;;19.26;68.61
76156;BME280;64906;51.290;7.348;2023-03-01T09:30:18;99469.84;;;19.25;68.73
76156;BME280;64906;51.290;7.348;2023-03-01T09:32:44;99460.00;;;19.24;68.83
76156;BME280;64906;51.290;7.348;2023-03-01T09:35:11;99457.81;;;19.26;68.97
76156;BME280;64906;51.290;7.348;2023-03-01T09:37:37;99450.69;;;19.25;68.60
76156;BME280;64906;51.290;7.348;2023-03-01T09:40:05;99454.53;;;19.24;68.76
76156;BME280;64906;51.290;7.348;2023-03-01T09:42:34;99461.91;;;19.24;68.76
76156;BME280;64906;51.290;7.348;2023-03-01T09:45:10;99462.47;;;19.26;68.91
76156;BME280;64906;51.290;7.348;2023-03-01T09:47:37;99463.31;;;19.26;68.83
76156;BME280;64906;51.290;7.348;2023-03-01T09:50:09;99457.56;;;19.28;68.72
76156;BME280;64906;51.290;7.348;2023-03-01T09:52:43;99466.56;;;19.28;68.52
76156;BME280;64906;51.290;7.348;2023-03-01T09:57:58;99471.56;;;19.31;68.34
76156;BME280;64906;51.290;7.348;2023-03-01T10:00:47;99476.78;;;19.33;68.54
76156;BME280;64906;51.290;7.348;2023-03-01T10:03:32;99485.25;;;19.36;68.65
76156;BME280;64906;51.290;7.348;2023-03-01T10:08:40;99480.31;;;19.33;68.53
76156;BME280;64906;51.290;7.348;2023-03-01T10:11:28;99481.13;;;19.34;68.41
76156;BME280;64906;51.290;7.348;2023-03-01T10:14:22;99476.50;;;19.34;68.57
76156;BME280;64906;51.290;7.348;2023-03-01T10:16:55;99483.59;;;19.35;68.63
76156;BME280;64906;51.290;7.348;2023-03-01T10:19:30;99473.75;;;19.34;68.48
76156;BME280;64906;51.290;7.348;2023-03-01T10:22:03;99464.44;;;19.35;68.66
76156;BME280;64906;51.290;7.348;2023-03-01T10:24:32;99470.47;;;19.37;68.47
76156;BME280;64906;51.290;7.348;2023-03-01T10:27:17;99449.41;;;19.38;68.49
76156;BME280;64906;51.290;7.348;2023-03-01T10:32:34;99454.06;;;19.37;68.57
76156;BME280;64906;51.290;7.348;2023-03-01T10:34:59;99459.81;;;19.41;68.52
76156;BME280;64906;51.290;7.348;2023-03-01T10:37:26;99459.53;;;19.42;68.52
76156;BME280;64906;51.290;7.348;2023-03-01T10:40:09;99453.81;;;19.44;68.47
76156;BME280;64906;51.290;7.348;2023-03-01T10:42:39;99456.81;;;19.42;68.38
76156;BME280;64906;51.290;7.348;2023-03-01T10:45:31;99451.06;;;19.44;68.39
76156;BME280;64906;51.290;7.348;2023-03-01T10:48:08;99450.50;;;19.42;68.65
76156;BME280;64906;51.290;7.348;2023-03-01T10:50:37;99452.13;;;19.43;68.32
76156;BME280;64906;51.290;7.348;2023-03-01T10:53:05;99452.13;;;19.43;68.36
76156;BME280;64906;51.290;7.348;2023-03-01T10:55:44;99446.66;;;19.43;68.53
76156;BME280;64906;51.290;7.348;2023-03-01T10:58:20;99439.84;;;19.45;68.54
76156;BME280;64906;51.290;7.348;2023-03-01T11:01:05;99448.31;;;19.44;68.26
76156;BME280;64906;51.290;7.348;2023-03-01T11:03:34;99444.22;;;19.46;68.63
76156;BME280;64906;51.290;7.348;2023-03-01T11:06:12;99454.09;;;19.47;68.37
76156;BME280;64906;51.290;7.348;2023-03-01T11:08:48;99440.09;;;19.44;68.31
76156;BME280;64906;51.290;7.348;2023-03-01T11:13:59;99446.44;;;19.49;68.45
76156;BME280;64906;51.290;7.348;2023-03-01T11:16:36;99446.16;;;19.51;68.31
76156;BME280;64906;51.290;7.348;2023-03-01T11:21:38;99450.53;;;19.47;68.43
76156;BME280;64906;51.290;7.348;2023-03-01T11:24:10;99444.22;;;19.46;68.34
76156;BME280;64906;51.290;7.348;2023-03-01T11:26:44;99445.88;;;19.47;68.28
76156;BME280;64906;51.290;7.348;2023-03-01T11:32:04;99446.16;;;19.46;68.40
76156;BME280;64906;51.290;7.348;2023-03-01T11:34:53;99441.47;;;19.46;68.51
76156;BME280;64906;51.290;7.348;2023-03-01T11:40:45;99433.25;;;19.46;68.34
76156;BME280;64906;51.290;7.348;2023-03-01T11:42:59;99429.72;;;19.46;68.61
76156;BME280;64906;51.290;7.348;2023-03-01T11:45:37;99425.03;;;19.46;68.26
76156;BME280;64906;51.290;7.348;2023-03-01T11:50:52;99416.56;;;19.48;68.45
76156;BME280;64906;51.290;7.348;2023-03-01T11:59:43;99400.41;;;19.46;68.46
76156;BME280;64906;51.290;7.348;2023-03-01T12:02:12;99406.72;;;19.47;68.54
76156;BME280;64906;51.290;7.348;2023-03-01T12:04:59;99391.09;;;19.47;68.59
76156;BME280;64906;51.290;7.348;2023-03-01T12:07:40;99388.38;;;19.47;68.26
76156;BME280;64906;51.290;7.348;2023-03-01T12:10:21;99381.50;;;19.50;68.44
76156;BME280;64906;51.290;7.348;2023-03-01T12:13:19;99385.09;;;19.50;68.43
76156;BME280;64906;51.290;7.348;2023-03-01T12:16:20;99383.97;;;19.51;68.19
76156;BME280;64906;51.290;7.348;2023-03-01T12:27:10;99365.38;;;19.53;68.43
76156;BME280;64906;51.290;7.348;2023-03-01T12:35:49;99355.81;;;19.56;68.35
76156;BME280;64906;51.290;7.348;2023-03-01T12:44:05;99373.31;;;19.60;68.20
76156;BME280;64906;51.290;7.348;2023-03-01T12:49:17;99370.03;;;19.63;67.76
76156;BME280;64906;51.290;7.348;2023-03-01T12:51:58;99368.13;;;19.63;68.16
76156;BME280;64906;51.290;7.348;2023-03-01T12:54:33;99371.69;;;19.64;67.96
76156;BME280;64906;51.290;7.348;2023-03-01T12:57:42;99369.47;;;19.66;67.93
76156;BME280;64906;51.290;7.348;2023-03-01T13:00:31;99364.28;;;19.64;67.89
76156;BME280;64906;51.290;7.348;2023-03-01T13:17:51;99347.28;;;19.67;68.07
76156;BME280;64906;51.290;7.348;2023-03-01T13:20:21;99342.38;;;19.69;68.04
76156;BME280;64906;51.290;7.348;2023-03-01T13:23:07;99351.13;;;19.71;68.12
76156;BME280;64906;51.290;7.348;2023-03-01T13:26:02;99343.47;;;19.73;67.93
76156;BME280;64906;51.290;7.348;2023-03-01T13:33:43;99334.69;;;19.76;68.03
76156;BME280;64906;51.290;7.348;2023-03-01T13:36:10;99325.66;;;19.76;67.79
76156;BME280;64906;51.290;7.348;2023-03-01T13:38:46;99322.13;;;19.75;67.74
76156;BME280;64906;51.290;7.348;2023-03-01T13:41:14;99318.53;;;19.75;67.69
76156;BME280;64906;51.290;7.348;2023-03-01T13:43:43;99317.97;;;19.78;67.76
76156;BME280;64906;51.290;7.348;2023-03-01T13:46:16;99317.72;;;19.79;68.09
76156;BME280;64906;51.290;7.348;2023-03-01T13:48:52;99308.94;;;19.82;67.67
76156;BME280;64906;51.290;7.348;2023-03-01T13:51:25;99308.13;;;19.82;67.41
76156;BME280;64906;51.290;7.348;2023-03-01T13:53:53;99313.34;;;19.83;67.86
76156;BME280;64906;51.290;7.348;2023-03-01T14:03:53;99301.53;;;19.88;67.30
76156;BME280;64906;51.290;7.348;2023-03-01T14:06:25;99298.53;;;19.89;67.60
76156;BME280;64906;51.290;7.348;2023-03-01T14:09:03;99296.34;;;19.91;67.28
76156;BME280;64906;51.290;7.348;2023-03-01T14:19:55;99307.00;;;19.98;67.11
76156;BME280;64906;51.290;7.348;2023-03-01T14:22:27;99308.34;;;20.00;67.29
76156;BME280;64906;51.290;7.348;2023-03-01T14:25:18;99303.72;;;20.01;67.06
76156;BME280;64906;51.290;7.348;2023-03-01T14:27:52;99299.84;;;20.02;67.06
76156;BME280;64906;51.290;7.348;2023-03-01T14:30:36;99292.47;;;20.02;67.06
76156;BME280;64906;51.290;7.348;2023-03-01T14:33:06;99289.72;;;20.02;67.17
76156;BME280;64906;51.290;7.348;2023-03-01T14:35:52;99276.31;;;20.01;66.91
76156;BME280;64906;51.290;7.348;2023-03-01T14:38:27;99277.94;;;20.02;67.26
76156;BME280;64906;51.290;7.348;2023-03-01T14:40:58;99278.22;;;20.00;67.33
76156;BME280;64906;51.290;7.348;2023-03-01T14:43:26;99277.13;;;20.01;67.17
76156;BME280;64906;51.290;7.348;2023-03-01T14:45:52;99283.41;;;20.02;66.98
76156;BME280;64906;51.290;7.348;2023-03-01T14:48:18;99279.88;;;20.01;66.96
76156;BME280;64906;51.290;7.348;2023-03-01T14:50:45;99279.88;;;20.01;67.16